Snedekerville, Pennsylvania
Current Conditions -  °F | °C
As of 12:53 PM on Saturday 20 Dec 2014 (Local Time) from KELM Reporting Station
Overcast Overcast  
Wind Chill: 24°   Ceiling: 2200
Heat Index: 30°   Visibility: 10mi
Dew Point: 21°   Wind: 6mph
Humidity: 69%   Direction: 10°N
Pressure: 30.22"   Gusts: NA
Location:  41.8495°N, 76.7925°W
Report Text: KELM 201753Z 01005KT 10SM OVC022 M01/M06 A3022 RMK AO2 SLP245 T10111061 11011 21017 58014
Loading
Personal Weather Stations






























Interactive Weather Map New forecast layout! Learn more

10-Day Weather Forecast

Advertisements
Track Severe Weather on mobile